Terminal Aerodrome Forecast
Issued by NWS

Home | Current Version | Previous Version | Text Only | Print | Product List | Glossary On
Versions: 1 2 3 4 5 6 7 8 9 10 11 12 13 14 15 16
000
FTUS43 KGRR 250433 AAB
TAFBTL
TAF AMD
KBTL 250433Z 2505/2524 24005KT 6SM BR SCT025
     FM250600 24005KT 4SM BR BKN015
     FM250900 24004KT 1SM BR BKN005
     FM251300 25006KT 5SM -RA BR OVC015
     FM251900 27008KT P6SM VCSH BKN025=

USA.gov is the U.S. government's official web portal to all federal, state and local government web resources and services.